Time;durP1;ratioP1;P1;durP2;ratioP2;P2;SDS_P1;SDS_P2;PMS_P1;PMS_P2;Temp;Humidity;BMP_temperature;BMP_pressure;BME280_temperature;BME280_humidity;BME280_pressure;Samples;Min_cycle;Max_cycle;Signal;HPM_P1;HPM_P2
2021/11/30 00:00:51;;;;;;;5.61;3.94;;;;;;;;;;362441;145;858476;-57
2021/11/30 00:01:52;;;;;;;6.82;3.90;;;;;;;;;;367205;146;864615;-56
2021/11/30 00:02:54;;;;;;;5.12;3.51;;;;;;;;;;356841;148;865792;-56
2021/11/30 00:03:56;;;;;;;5.37;3.64;;;;;;;;;;357356;148;864862;-57
2021/11/30 00:04:57;;;;;;;5.06;3.53;;;;;;;;;;362896;145;864995;-56
2021/11/30 00:05:59;;;;;;;5.07;3.61;;;;;;;;;;360706;145;864832;-56
2021/11/30 00:07:01;;;;;;;6.57;3.64;;;;;;;;;;363481;146;864738;-56
2021/11/30 00:08:04;;;;;;;5.92;4.25;;;;;;;;;;362512;146;860030;-57
2021/11/30 00:10:54;;;;;;;5.22;3.51;;;;;;;;;;341842;154;859549;-59
2021/11/30 00:11:28;;;;;;;5.43;3.78;;;;;;;;;;346476;145;858797;-59
2021/11/30 00:12:29;;;;;;;5.71;3.58;;;;;;;;;;368546;145;858188;-59
2021/11/30 00:13:31;;;;;;;6.05;3.56;;;;;;;;;;356465;148;866455;-59
2021/11/30 00:14:35;;;;;;;5.91;3.93;;;;;;;;;;356003;148;865446;-59
2021/11/30 00:15:37;;;;;;;3.74;2.88;;;;;;;;;;359023;147;857727;-57
2021/11/30 00:16:38;;;;;;;5.66;3.26;;;;;;;;;;360457;146;864840;-57
2021/11/30 00:17:40;;;;;;;5.07;3.54;;;;;;;;;;362232;146;866106;-58
2021/11/30 00:18:42;;;;;;;4.54;3.19;;;;;;;;;;360928;146;864996;-57
2021/11/30 00:19:45;;;;;;;4.11;2.93;;;;;;;;;;364181;145;859607;-58
2021/11/30 00:20:47;;;;;;;4.39;3.07;;;;;;;;;;360983;146;858284;-57
2021/11/30 00:21:49;;;;;;;6.09;3.87;;;;;;;;;;361348;146;859213;-58
2021/11/30 00:22:50;;;;;;;5.22;3.40;;;;;;;;;;357911;146;864946;-58
2021/11/30 00:23:52;;;;;;;4.96;2.99;;;;;;;;;;356270;148;864697;-58
2021/11/30 00:24:54;;;;;;;4.43;3.07;;;;;;;;;;354051;148;865664;-58
2021/11/30 00:25:55;;;;;;;3.15;2.49;;;;;;;;;;352925;151;864704;-58
2021/11/30 00:26:57;;;;;;;5.53;3.92;;;;;;;;;;360519;146;865490;-58
2021/11/30 00:27:59;;;;;;;5.31;3.57;;;;;;;;;;360472;146;864874;-58
2021/11/30 00:29:01;;;;;;;5.31;3.72;;;;;;;;;;360518;145;858797;-58
2021/11/30 00:30:03;;;;;;;4.21;3.23;;;;;;;;;;356998;146;857141;-58
2021/11/30 00:31:04;;;;;;;4.39;3.37;;;;;;;;;;359496;146;865759;-58
2021/11/30 00:32:07;;;;;;;6.06;3.04;;;;;;;;;;362470;146;857112;-58
2021/11/30 00:33:09;;;;;;;4.42;3.25;;;;;;;;;;359058;146;858077;-58
2021/11/30 00:34:11;;;;;;;4.76;3.40;;;;;;;;;;360550;145;857262;-58
2021/11/30 00:35:12;;;;;;;4.64;3.00;;;;;;;;;;355122;148;865894;-58
2021/11/30 00:36:17;;;;;;;5.31;3.51;;;;;;;;;;364790;146;857647;-59
2021/11/30 00:37:18;;;;;;;4.51;3.48;;;;;;;;;;360343;146;864791;-58
2021/11/30 00:38:20;;;;;;;4.31;3.09;;;;;;;;;;361509;146;861061;-58
2021/11/30 00:39:22;;;;;;;4.95;3.14;;;;;;;;;;364641;146;866512;-58
2021/11/30 00:40:24;;;;;;;4.98;3.73;;;;;;;;;;356536;146;865694;-58
2021/11/30 00:41:25;;;;;;;5.66;2.79;;;;;;;;;;358541;148;857234;-58
2021/11/30 00:42:28;;;;;;;5.81;3.36;;;;;;;;;;363082;146;865513;-57
2021/11/30 00:43:33;;;;;;;7.43;3.26;;;;;;;;;;355726;148;864757;-58
2021/11/30 00:44:35;;;;;;;3.95;2.68;;;;;;;;;;356070;149;857694;-58
2021/11/30 00:45:45;;;;;;;4.99;3.33;;;;;;;;;;356668;148;860018;-58
2021/11/30 00:46:41;;;;;;;6.21;3.59;;;;;;;;;;356139;149;859551;-58
2021/11/30 00:47:53;;;;;;;5.01;3.64;;;;;;;;;;361939;146;866645;-58
2021/11/30 00:48:50;;;;;;;4.97;3.57;;;;;;;;;;360307;145;859319;-58
2021/11/30 00:49:52;;;;;;;7.06;3.40;;;;;;;;;;363362;146;859252;-58
2021/11/30 00:50:53;;;;;;;5.57;3.25;;;;;;;;;;355124;149;864793;-58
2021/11/30 00:51:56;;;;;;;3.78;3.11;;;;;;;;;;353102;149;859175;-58
2021/11/30 00:52:57;;;;;;;5.16;2.98;;;;;;;;;;355522;148;864834;-58
2021/11/30 00:53:59;;;;;;;5.29;3.41;;;;;;;;;;360391;148;857755;-58
2021/11/30 00:55:00;;;;;;;5.85;3.46;;;;;;;;;;358159;146;864876;-58
2021/11/30 00:56:02;;;;;;;7.18;3.16;;;;;;;;;;361232;146;864794;-58
2021/11/30 00:57:04;;;;;;;4.49;3.11;;;;;;;;;;362423;146;865666;-58
2021/11/30 00:58:06;;;;;;;4.47;3.33;;;;;;;;;;360956;146;857273;-58
2021/11/30 00:59:08;;;;;;;5.11;3.81;;;;;;;;;;357894;148;858150;-58
2021/11/30 01:00:11;;;;;;;6.58;3.53;;;;;;;;;;356927;148;864652;-58
2021/11/30 01:01:13;;;;;;;4.35;2.64;;;;;;;;;;362183;146;858992;-58
2021/11/30 01:02:17;;;;;;;5.59;3.38;;;;;;;;;;363486;146;857332;-58
2021/11/30 01:03:18;;;;;;;4.04;2.72;;;;;;;;;;355719;148;865632;-58
2021/11/30 01:04:20;;;;;;;6.14;3.28;;;;;;;;;;364806;146;865410;-58
2021/11/30 01:05:22;;;;;;;4.16;2.91;;;;;;;;;;361432;146;864922;-57
2021/11/30 01:06:24;;;;;;;5.13;3.39;;;;;;;;;;361620;147;865629;-58
2021/11/30 01:07:27;;;;;;;5.40;3.05;;;;;;;;;;362836;146;864785;-58
2021/11/30 01:08:28;;;;;;;2.47;2.11;;;;;;;;;;359901;148;865419;-58
2021/11/30 01:09:30;;;;;;;4.83;2.70;;;;;;;;;;358952;146;857804;-58
2021/11/30 01:10:32;;;;;;;4.77;3.43;;;;;;;;;;362479;146;866925;-58
2021/11/30 01:11:34;;;;;;;3.24;2.51;;;;;;;;;;362338;146;856366;-58
2021/11/30 01:12:35;;;;;;;4.50;3.09;;;;;;;;;;361478;146;865841;-58
2021/11/30 01:13:37;;;;;;;5.42;3.33;;;;;;;;;;360901;145;864909;-58
2021/11/30 01:14:38;;;;;;;4.75;3.44;;;;;;;;;;361580;146;857434;-58
2021/11/30 01:15:40;;;;;;;5.49;3.08;;;;;;;;;;360695;147;865001;-57
2021/11/30 01:16:42;;;;;;;3.35;2.74;;;;;;;;;;362058;145;865857;-57
2021/11/30 01:17:43;;;;;;;4.68;2.87;;;;;;;;;;360749;146;864855;-55
2021/11/30 01:18:45;;;;;;;4.11;2.36;;;;;;;;;;361615;146;866743;-55
2021/11/30 01:19:46;;;;;;;3.14;2.56;;;;;;;;;;362207;145;865230;-57
2021/11/30 01:20:52;;;;;;;3.22;2.38;;;;;;;;;;360584;147;857344;-59
2021/11/30 01:21:54;;;;;;;3.65;2.81;;;;;;;;;;361814;146;857761;-58
2021/11/30 01:22:56;;;;;;;3.35;2.82;;;;;;;;;;361935;148;864669;-58
2021/11/30 01:23:58;;;;;;;2.47;1.93;;;;;;;;;;359861;146;864932;-57
2021/11/30 01:24:59;;;;;;;3.84;2.67;;;;;;;;;;357927;148;857261;-56
2021/11/30 01:26:01;;;;;;;5.81;3.38;;;;;;;;;;352685;148;865802;-57
2021/11/30 01:27:03;;;;;;;3.21;2.72;;;;;;;;;;357180;149;857291;-57
2021/11/30 01:28:04;;;;;;;3.47;2.74;;;;;;;;;;356317;148;865650;-57
2021/11/30 01:29:06;;;;;;;4.64;3.21;;;;;;;;;;356442;148;857525;-57
2021/11/30 01:30:09;;;;;;;4.66;2.43;;;;;;;;;;354645;149;864937;-58
2021/11/30 01:31:11;;;;;;;3.56;2.70;;;;;;;;;;355919;148;858682;-58
2021/11/30 01:32:12;;;;;;;3.86;2.55;;;;;;;;;;355933;147;857208;-57
2021/11/30 01:33:14;;;;;;;3.46;2.51;;;;;;;;;;357449;147;864881;-58
2021/11/30 01:34:15;;;;;;;4.22;2.69;;;;;;;;;;359987;148;864646;-58
2021/11/30 01:35:17;;;;;;;4.41;2.34;;;;;;;;;;357773;148;858863;-58
2021/11/30 01:36:19;;;;;;;4.39;3.04;;;;;;;;;;358031;147;858103;-58
2021/11/30 01:37:21;;;;;;;3.84;2.89;;;;;;;;;;357789;147;857302;-58
2021/11/30 01:38:24;;;;;;;3.93;2.84;;;;;;;;;;357716;148;865359;-58
2021/11/30 01:39:26;;;;;;;4.71;2.77;;;;;;;;;;355933;148;857291;-58
2021/11/30 01:40:28;;;;;;;5.68;3.18;;;;;;;;;;355949;149;857716;-58
2021/11/30 01:41:33;;;;;;;3.87;2.45;;;;;;;;;;354806;148;857255;-58
2021/11/30 01:42:34;;;;;;;4.52;2.93;;;;;;;;;;356573;148;857573;-58
2021/11/30 01:43:41;;;;;;;4.60;2.23;;;;;;;;;;358455;148;859943;-58
2021/11/30 01:44:47;;;;;;;4.67;3.06;;;;;;;;;;354052;149;857360;-58
2021/11/30 01:45:45;;;;;;;4.39;2.96;;;;;;;;;;354613;148;857373;-58
2021/11/30 01:50:18;;;;;;;2.89;2.33;;;;;;;;;;343312;153;859451;-58
2021/11/30 01:51:20;;;;;;;4.04;2.43;;;;;;;;;;346503;149;857719;-57
2021/11/30 01:52:21;;;;;;;2.49;2.00;;;;;;;;;;356182;149;857185;-58
2021/11/30 01:53:23;;;;;;;3.98;2.49;;;;;;;;;;357464;147;866293;-58
2021/11/30 01:54:25;;;;;;;4.70;2.91;;;;;;;;;;356425;147;866335;-58
2021/11/30 01:55:27;;;;;;;4.60;2.83;;;;;;;;;;355651;148;864918;-57
2021/11/30 01:56:30;;;;;;;4.53;2.79;;;;;;;;;;355866;148;865473;-57
2021/11/30 01:57:31;;;;;;;3.76;2.91;;;;;;;;;;359970;148;859261;-58
2021/11/30 01:58:33;;;;;;;2.65;1.97;;;;;;;;;;357655;148;857157;-58
2021/11/30 01:59:35;;;;;;;3.17;2.46;;;;;;;;;;355991;148;865693;-57
2021/11/30 02:00:38;;;;;;;3.57;2.63;;;;;;;;;;357131;148;865187;-57
2021/11/30 02:01:40;;;;;;;3.35;2.52;;;;;;;;;;355950;148;859702;-57
2021/11/30 02:02:41;;;;;;;3.97;3.01;;;;;;;;;;354874;148;858287;-57
2021/11/30 02:03:45;;;;;;;3.44;2.79;;;;;;;;;;356451;148;858711;-57
2021/11/30 02:04:46;;;;;;;3.25;2.27;;;;;;;;;;357109;148;864847;-57
2021/11/30 02:05:48;;;;;;;5.90;1.89;;;;;;;;;;355930;149;857586;-57
2021/11/30 02:06:49;;;;;;;3.81;2.91;;;;;;;;;;356851;150;865316;-57
2021/11/30 02:07:51;;;;;;;4.78;3.48;;;;;;;;;;357041;148;864783;-57
2021/11/30 02:08:53;;;;;;;4.35;2.24;;;;;;;;;;355240;147;865732;-57
2021/11/30 02:09:54;;;;;;;3.86;2.63;;;;;;;;;;353455;150;864677;-56
2021/11/30 02:10:57;;;;;;;3.74;2.45;;;;;;;;;;356586;147;865694;-57
2021/11/30 02:11:58;;;;;;;3.72;2.19;;;;;;;;;;356909;148;864852;-57
2021/11/30 02:13:00;;;;;;;4.59;2.36;;;;;;;;;;358465;149;860027;-57
2021/11/30 02:14:02;;;;;;;4.15;2.60;;;;;;;;;;354050;148;865282;-57
2021/11/30 02:15:06;;;;;;;3.36;2.47;;;;;;;;;;356894;148;866474;-57
2021/11/30 02:16:08;;;;;;;3.53;2.38;;;;;;;;;;356546;147;857932;-57
2021/11/30 02:17:10;;;;;;;4.59;3.11;;;;;;;;;;357243;147;857459;-58
2021/11/30 02:18:21;;;;;;;4.14;2.69;;;;;;;;;;356996;147;857158;-57
2021/11/30 02:19:18;;;;;;;4.20;2.24;;;;;;;;;;355817;148;866740;-57
2021/11/30 02:20:21;;;;;;;4.89;3.32;;;;;;;;;;354990;149;857243;-57
2021/11/30 02:21:23;;;;;;;3.49;2.87;;;;;;;;;;354287;148;858637;-57
2021/11/30 02:22:25;;;;;;;4.17;3.08;;;;;;;;;;358788;148;857339;-57
2021/11/30 02:24:32;;;;;;;5.08;2.96;;;;;;;;;;358374;146;857773;-57
2021/11/30 02:25:34;;;;;;;5.01;3.27;;;;;;;;;;362395;146;859788;-57
2021/11/30 02:26:36;;;;;;;6.22;4.08;;;;;;;;;;362407;146;865931;-57
2021/11/30 02:27:38;;;;;;;4.60;2.92;;;;;;;;;;360741;146;857249;-57
2021/11/30 02:28:40;;;;;;;4.33;2.98;;;;;;;;;;361208;146;857810;-56
2021/11/30 02:29:42;;;;;;;3.27;2.78;;;;;;;;;;360352;146;859077;-57
2021/11/30 02:30:43;;;;;;;5.37;3.89;;;;;;;;;;359243;145;857863;-57
2021/11/30 02:31:47;;;;;;;6.21;3.66;;;;;;;;;;360326;146;864890;-57
2021/11/30 02:32:48;;;;;;;3.42;2.79;;;;;;;;;;360865;146;866525;-57
2021/11/30 02:33:50;;;;;;;4.31;2.84;;;;;;;;;;362036;146;858806;-58
2021/11/30 02:34:52;;;;;;;4.53;3.05;;;;;;;;;;361199;148;864638;-57
2021/11/30 02:35:53;;;;;;;4.75;3.39;;;;;;;;;;362172;146;865619;-57
2021/11/30 02:37:04;;;;;;;4.19;2.70;;;;;;;;;;361946;146;857086;-57
2021/11/30 02:37:59;;;;;;;4.99;3.19;;;;;;;;;;356210;148;858253;-57
2021/11/30 02:39:01;;;;;;;3.95;3.28;;;;;;;;;;361332;145;865721;-57
2021/11/30 02:40:03;;;;;;;4.99;3.94;;;;;;;;;;362413;146;867350;-57
2021/11/30 02:41:05;;;;;;;5.75;4.17;;;;;;;;;;361924;146;860057;-57
2021/11/30 02:42:26;;;;;;;6.43;3.61;;;;;;;;;;361477;146;857128;-57
2021/11/30 02:43:28;;;;;;;4.06;2.93;;;;;;;;;;350738;152;864711;-58
2021/11/30 02:44:30;;;;;;;6.27;3.46;;;;;;;;;;356121;150;858516;-58
2021/11/30 02:45:32;;;;;;;3.71;2.50;;;;;;;;;;355260;149;857250;-57
2021/11/30 02:46:35;;;;;;;4.86;3.06;;;;;;;;;;351720;149;866544;-58
2021/11/30 02:47:37;;;;;;;6.17;3.31;;;;;;;;;;350240;151;857571;-58
2021/11/30 02:48:39;;;;;;;4.71;3.34;;;;;;;;;;353072;150;857732;-58
2021/11/30 02:49:42;;;;;;;6.37;4.06;;;;;;;;;;353159;149;859256;-58
2021/11/30 02:50:44;;;;;;;3.27;2.78;;;;;;;;;;350025;150;864886;-57
2021/11/30 02:51:47;;;;;;;4.89;3.43;;;;;;;;;;356729;150;857261;-58
2021/11/30 02:52:48;;;;;;;5.21;3.79;;;;;;;;;;349963;149;864655;-58
2021/11/30 02:53:50;;;;;;;5.34;3.59;;;;;;;;;;350720;149;857700;-58
2021/11/30 02:54:54;;;;;;;4.94;3.53;;;;;;;;;;351137;151;857245;-59
2021/11/30 02:55:56;;;;;;;4.72;3.45;;;;;;;;;;352302;152;865504;-58
2021/11/30 02:56:58;;;;;;;5.59;3.56;;;;;;;;;;351976;151;865419;-58
2021/11/30 02:58:00;;;;;;;5.79;3.95;;;;;;;;;;349955;152;866311;-58
2021/11/30 02:59:03;;;;;;;6.74;4.16;;;;;;;;;;353472;148;858733;-58
2021/11/30 03:00:06;;;;;;;8.07;3.85;;;;;;;;;;351576;151;864751;-58
2021/11/30 03:01:10;;;;;;;4.58;3.76;;;;;;;;;;340522;154;857214;-58
2021/11/30 03:02:13;;;;;;;6.54;4.12;;;;;;;;;;338255;156;865748;-58
2021/11/30 03:03:15;;;;;;;4.14;3.40;;;;;;;;;;343749;156;857777;-58
2021/11/30 03:04:17;;;;;;;5.39;4.29;;;;;;;;;;343632;152;864708;-58
2021/11/30 03:05:18;;;;;;;4.91;3.52;;;;;;;;;;349182;151;865733;-57
2021/11/30 03:06:21;;;;;;;5.22;3.85;;;;;;;;;;352265;153;865356;-57
2021/11/30 03:07:23;;;;;;;7.66;3.41;;;;;;;;;;351726;149;858883;-56
2021/11/30 03:08:25;;;;;;;6.94;3.98;;;;;;;;;;350765;149;857185;-56
2021/11/30 03:09:27;;;;;;;6.08;4.13;;;;;;;;;;350331;153;859059;-57
2021/11/30 03:10:29;;;;;;;6.11;4.44;;;;;;;;;;350503;150;864837;-56
2021/11/30 03:11:30;;;;;;;7.01;3.74;;;;;;;;;;349271;149;857226;-57
2021/11/30 03:12:32;;;;;;;4.56;3.21;;;;;;;;;;349866;151;858918;-57
2021/11/30 03:13:34;;;;;;;6.05;3.61;;;;;;;;;;351952;152;864797;-57
2021/11/30 03:14:36;;;;;;;4.51;3.48;;;;;;;;;;351215;149;866411;-57
2021/11/30 03:15:38;;;;;;;5.81;3.77;;;;;;;;;;349192;151;857773;-57
2021/11/30 03:16:40;;;;;;;6.05;3.71;;;;;;;;;;351612;151;858245;-57
2021/11/30 03:17:42;;;;;;;7.11;4.44;;;;;;;;;;351309;149;858748;-57
2021/11/30 03:18:43;;;;;;;6.05;3.93;;;;;;;;;;350366;151;857389;-58
2021/11/30 03:19:45;;;;;;;6.09;4.01;;;;;;;;;;351431;151;857251;-57
2021/11/30 03:20:46;;;;;;;5.42;4.34;;;;;;;;;;351644;153;859072;-56
2021/11/30 03:21:48;;;;;;;6.25;3.71;;;;;;;;;;341365;154;865076;-57
2021/11/30 03:22:49;;;;;;;3.79;3.29;;;;;;;;;;350922;152;866269;-57
2021/11/30 03:23:51;;;;;;;6.28;4.03;;;;;;;;;;356652;150;865328;-57
2021/11/30 03:24:53;;;;;;;7.31;3.94;;;;;;;;;;349132;149;864850;-57
2021/11/30 03:25:54;;;;;;;6.92;3.94;;;;;;;;;;349399;149;865768;-57
2021/11/30 03:26:56;;;;;;;6.18;4.19;;;;;;;;;;350926;151;864819;-57
2021/11/30 03:27:58;;;;;;;10.93;4.21;;;;;;;;;;350914;150;866968;-57
2021/11/30 03:28:59;;;;;;;5.97;4.24;;;;;;;;;;350384;149;859331;-57
2021/11/30 03:30:02;;;;;;;10.19;3.61;;;;;;;;;;352576;151;857286;-57
2021/11/30 03:31:06;;;;;;;5.03;3.70;;;;;;;;;;351615;153;858784;-57
2021/11/30 03:34:29;;;;;;;4.38;3.01;;;;;;;;;;350613;152;859160;-57
2021/11/30 03:35:31;;;;;;;4.59;3.79;;;;;;;;;;349869;149;857443;-57
2021/11/30 03:36:33;;;;;;;7.61;4.32;;;;;;;;;;351236;149;865289;-56
2021/11/30 03:37:34;;;;;;;5.09;3.61;;;;;;;;;;351820;151;863614;-57
2021/11/30 03:38:36;;;;;;;4.46;3.19;;;;;;;;;;353507;150;856993;-56
2021/11/30 03:39:38;;;;;;;6.24;4.13;;;;;;;;;;347825;149;864854;-56
2021/11/30 03:40:40;;;;;;;6.79;4.83;;;;;;;;;;351425;151;866866;-56
2021/11/30 03:41:42;;;;;;;6.05;3.98;;;;;;;;;;352110;152;865768;-57
2021/11/30 03:42:43;;;;;;;4.93;3.71;;;;;;;;;;350904;149;857767;-57
2021/11/30 03:43:45;;;;;;;4.41;3.37;;;;;;;;;;349690;151;857382;-56
2021/11/30 03:44:46;;;;;;;6.52;4.73;;;;;;;;;;352695;151;866274;-57
2021/11/30 03:45:48;;;;;;;5.73;4.14;;;;;;;;;;352381;150;865715;-57
2021/11/30 03:46:51;;;;;;;5.71;4.18;;;;;;;;;;351019;149;857324;-57
2021/11/30 03:47:52;;;;;;;6.07;3.99;;;;;;;;;;351813;152;859689;-56
2021/11/30 03:48:54;;;;;;;6.49;4.51;;;;;;;;;;352392;153;857287;-56
2021/11/30 03:49:56;;;;;;;5.77;4.02;;;;;;;;;;349114;149;865580;-56
2021/11/30 03:50:57;;;;;;;5.80;4.22;;;;;;;;;;346268;152;864868;-58
2021/11/30 03:51:59;;;;;;;5.28;4.29;;;;;;;;;;350717;150;865265;-59
2021/11/30 03:53:00;;;;;;;5.57;4.11;;;;;;;;;;348849;149;864970;-59
2021/11/30 03:54:03;;;;;;;5.24;4.09;;;;;;;;;;349703;149;865371;-59
2021/11/30 03:55:05;;;;;;;5.05;4.07;;;;;;;;;;352253;153;864685;-59
2021/11/30 03:56:06;;;;;;;6.28;4.11;;;;;;;;;;345726;150;857177;-59
2021/11/30 03:57:08;;;;;;;4.11;3.37;;;;;;;;;;351931;149;857665;-59
2021/11/30 03:58:10;;;;;;;6.23;4.30;;;;;;;;;;346819;151;865450;-60
2021/11/30 03:59:11;;;;;;;5.35;4.36;;;;;;;;;;347737;150;864927;-59
2021/11/30 04:00:14;;;;;;;5.89;4.21;;;;;;;;;;351261;149;857325;-58
2021/11/30 04:01:15;;;;;;;4.79;3.75;;;;;;;;;;347655;149;857209;-59
2021/11/30 04:02:19;;;;;;;6.78;4.29;;;;;;;;;;352404;151;857315;-59
2021/11/30 04:03:23;;;;;;;5.76;3.55;;;;;;;;;;353934;150;857341;-60
2021/11/30 04:04:26;;;;;;;5.22;3.81;;;;;;;;;;349267;149;865548;-59
2021/11/30 04:05:27;;;;;;;5.74;4.18;;;;;;;;;;352378;150;858556;-58
2021/11/30 04:06:29;;;;;;;7.88;3.92;;;;;;;;;;353674;150;858607;-60
2021/11/30 04:07:31;;;;;;;4.55;3.22;;;;;;;;;;352064;149;866505;-57
2021/11/30 04:08:34;;;;;;;6.52;4.00;;;;;;;;;;351075;150;857647;-59
2021/11/30 04:09:36;;;;;;;7.31;4.49;;;;;;;;;;351453;150;856926;-58
2021/11/30 04:10:38;;;;;;;6.70;3.26;;;;;;;;;;351830;150;857777;-58
2021/11/30 04:11:40;;;;;;;6.40;3.90;;;;;;;;;;350717;151;864858;-57
2021/11/30 04:12:41;;;;;;;6.72;4.01;;;;;;;;;;352658;149;865989;-57
2021/11/30 04:13:43;;;;;;;6.34;4.46;;;;;;;;;;354295;149;857282;-57
2021/11/30 04:14:45;;;;;;;4.24;3.66;;;;;;;;;;351676;149;865737;-57
2021/11/30 04:15:46;;;;;;;5.69;4.61;;;;;;;;;;351473;150;864969;-58
2021/11/30 04:16:48;;;;;;;6.39;4.83;;;;;;;;;;352715;150;865608;-58
2021/11/30 04:17:50;;;;;;;7.59;4.01;;;;;;;;;;352341;151;865138;-58
2021/11/30 04:18:51;;;;;;;5.94;4.37;;;;;;;;;;351686;149;866444;-57
2021/11/30 04:19:53;;;;;;;4.79;3.46;;;;;;;;;;350113;150;864710;-56
2021/11/30 04:20:54;;;;;;;7.27;4.34;;;;;;;;;;348753;153;864643;-57
2021/11/30 04:21:56;;;;;;;6.16;4.41;;;;;;;;;;341791;154;867474;-56
2021/11/30 04:22:58;;;;;;;6.41;4.13;;;;;;;;;;349085;151;865183;-56
2021/11/30 04:24:00;;;;;;;6.14;4.24;;;;;;;;;;349565;152;864808;-56
2021/11/30 04:25:01;;;;;;;7.11;4.56;;;;;;;;;;350573;152;866514;-57
2021/11/30 04:26:03;;;;;;;5.98;4.69;;;;;;;;;;349863;150;860751;-57
2021/11/30 04:27:05;;;;;;;4.35;3.44;;;;;;;;;;351747;151;857190;-57
2021/11/30 04:28:06;;;;;;;6.19;4.99;;;;;;;;;;351656;151;864800;-57
2021/11/30 04:29:08;;;;;;;5.76;4.47;;;;;;;;;;348432;149;864758;-57
2021/11/30 04:30:10;;;;;;;6.09;3.98;;;;;;;;;;348793;152;866553;-58
2021/11/30 04:31:12;;;;;;;6.17;4.63;;;;;;;;;;351005;153;858685;-57
2021/11/30 04:32:14;;;;;;;5.64;3.86;;;;;;;;;;351873;149;857261;-57
2021/11/30 04:33:15;;;;;;;6.69;4.53;;;;;;;;;;344625;153;864882;-58
2021/11/30 04:34:17;;;;;;;6.20;4.53;;;;;;;;;;352600;150;864701;-57
2021/11/30 04:35:19;;;;;;;8.31;5.04;;;;;;;;;;353383;150;858291;-57
2021/11/30 04:36:21;;;;;;;7.77;4.09;;;;;;;;;;348295;150;864903;-55
2021/11/30 04:37:23;;;;;;;5.22;3.24;;;;;;;;;;351687;151;857259;-56
2021/11/30 04:38:24;;;;;;;6.27;4.29;;;;;;;;;;351349;153;857825;-57
2021/11/30 04:39:26;;;;;;;5.34;3.64;;;;;;;;;;348863;149;865252;-57
2021/11/30 04:40:28;;;;;;;6.27;3.29;;;;;;;;;;345710;151;864797;-57
2021/11/30 04:41:30;;;;;;;7.89;3.83;;;;;;;;;;347865;153;857877;-56
2021/11/30 04:42:32;;;;;;;6.24;4.06;;;;;;;;;;351588;151;866630;-56
2021/11/30 04:43:35;;;;;;;6.09;3.90;;;;;;;;;;345624;152;860783;-59
2021/11/30 04:44:39;;;;;;;6.49;3.81;;;;;;;;;;340065;155;857226;-57
2021/11/30 04:47:05;;;;;;;6.16;3.55;;;;;;;;;;342908;155;866561;-58
2021/11/30 04:48:00;;;;;;;5.22;3.39;;;;;;;;;;345264;153;860168;-57
2021/11/30 04:49:12;;;;;;;5.78;3.44;;;;;;;;;;343624;156;859339;-57
2021/11/30 04:50:22;;;;;;;5.65;3.94;;;;;;;;;;342275;153;865719;-57
2021/11/30 04:51:14;;;;;;;5.02;3.66;;;;;;;;;;340566;152;859878;-56
2021/11/30 04:52:16;;;;;;;5.33;3.30;;;;;;;;;;343617;156;858397;-57
2021/11/30 04:53:20;;;;;;;7.66;3.94;;;;;;;;;;343614;154;858286;-57
2021/11/30 04:54:22;;;;;;;4.69;3.70;;;;;;;;;;340158;155;866687;-56
2021/11/30 04:55:30;;;;;;;4.33;3.11;;;;;;;;;;341228;154;857420;-57
2021/11/30 04:56:30;;;;;;;5.66;3.39;;;;;;;;;;339354;157;857338;-57
2021/11/30 04:57:32;;;;;;;5.32;3.57;;;;;;;;;;341704;152;857254;-57
2021/11/30 04:58:33;;;;;;;5.61;3.45;;;;;;;;;;335786;157;864770;-60
2021/11/30 04:59:35;;;;;;;4.04;3.10;;;;;;;;;;339345;158;865622;-61
2021/11/30 05:00:38;;;;;;;5.98;3.66;;;;;;;;;;343093;154;865029;-58
2021/11/30 05:01:39;;;;;;;5.46;3.78;;;;;;;;;;337040;155;864880;-57
2021/11/30 05:02:41;;;;;;;4.58;2.96;;;;;;;;;;344599;155;857454;-58
2021/11/30 05:03:43;;;;;;;4.01;2.88;;;;;;;;;;343843;155;864902;-58
2021/11/30 05:04:47;;;;;;;5.61;4.13;;;;;;;;;;342741;152;857490;-63
2021/11/30 05:05:48;;;;;;;3.87;2.74;;;;;;;;;;341092;154;860483;-65
2021/11/30 05:06:50;;;;;;;6.12;3.72;;;;;;;;;;344786;156;858588;-64
2021/11/30 05:07:51;;;;;;;5.99;3.66;;;;;;;;;;343393;154;865637;-62
2021/11/30 05:08:53;;;;;;;4.91;2.94;;;;;;;;;;339829;153;864686;-62
2021/11/30 05:09:55;;;;;;;5.18;3.17;;;;;;;;;;335283;159;866726;-60
2021/11/30 05:10:57;;;;;;;4.13;2.89;;;;;;;;;;342434;152;857341;-64
2021/11/30 05:11:58;;;;;;;4.42;3.41;;;;;;;;;;340774;154;866560;-61
2021/11/30 05:13:02;;;;;;;5.14;3.65;;;;;;;;;;342134;156;868639;-56
2021/11/30 05:14:04;;;;;;;7.12;3.24;;;;;;;;;;336067;158;864808;-61
2021/11/30 05:15:06;;;;;;;4.48;2.83;;;;;;;;;;335961;157;857175;-60
2021/11/30 05:16:08;;;;;;;4.35;3.47;;;;;;;;;;336213;156;858674;-59
2021/11/30 05:17:10;;;;;;;5.34;3.43;;;;;;;;;;343991;156;864862;-60
2021/11/30 05:18:11;;;;;;;4.31;2.96;;;;;;;;;;342919;152;866384;-60
2021/11/30 05:19:13;;;;;;;5.26;3.08;;;;;;;;;;342999;153;866702;-61
2021/11/30 05:20:15;;;;;;;4.77;3.09;;;;;;;;;;342754;155;865629;-57
2021/11/30 05:21:17;;;;;;;6.11;3.56;;;;;;;;;;336368;156;857393;-55
2021/11/30 05:22:18;;;;;;;6.04;3.23;;;;;;;;;;340438;154;865121;-57
2021/11/30 05:23:27;;;;;;;4.26;2.94;;;;;;;;;;339556;156;864843;-55
2021/11/30 05:24:27;;;;;;;7.29;3.51;;;;;;;;;;337435;156;866018;-55
2021/11/30 05:25:34;;;;;;;6.08;3.75;;;;;;;;;;338840;155;859233;-55
2021/11/30 05:26:32;;;;;;;6.16;3.68;;;;;;;;;;337536;157;857777;-54
2021/11/30 05:27:41;;;;;;;7.06;3.73;;;;;;;;;;340281;157;864879;-55
2021/11/30 05:28:43;;;;;;;4.86;2.45;;;;;;;;;;340740;154;864874;-55
2021/11/30 05:29:44;;;;;;;4.17;2.86;;;;;;;;;;336989;154;859219;-55
2021/11/30 05:30:47;;;;;;;4.68;2.95;;;;;;;;;;335220;157;859667;-56
2021/11/30 05:31:48;;;;;;;5.41;3.03;;;;;;;;;;341218;156;857137;-55
2021/11/30 05:32:50;;;;;;;5.88;3.09;;;;;;;;;;344405;152;859708;-56
2021/11/30 05:33:51;;;;;;;5.29;3.15;;;;;;;;;;342165;154;857702;-55
2021/11/30 05:34:53;;;;;;;4.38;3.24;;;;;;;;;;344599;156;865603;-55
2021/11/30 05:35:55;;;;;;;5.80;4.12;;;;;;;;;;345750;153;864756;-55
2021/11/30 05:36:57;;;;;;;7.07;3.92;;;;;;;;;;337598;155;866206;-55
2021/11/30 05:37:59;;;;;;;5.68;3.23;;;;;;;;;;339640;155;857369;-55
2021/11/30 05:39:00;;;;;;;4.67;2.59;;;;;;;;;;340931;157;857375;-55
2021/11/30 05:40:03;;;;;;;5.87;3.16;;;;;;;;;;338021;155;860185;-55
2021/11/30 05:41:04;;;;;;;5.35;3.23;;;;;;;;;;337920;156;857208;-55
2021/11/30 05:42:07;;;;;;;4.66;3.41;;;;;;;;;;344497;154;858166;-59
2021/11/30 05:43:09;;;;;;;4.64;3.07;;;;;;;;;;344008;152;865825;-60
2021/11/30 05:44:11;;;;;;;4.37;3.20;;;;;;;;;;343493;153;858953;-55
2021/11/30 05:45:13;;;;;;;5.90;3.24;;;;;;;;;;350729;150;857295;-54
2021/11/30 05:46:15;;;;;;;2.69;2.27;;;;;;;;;;351971;150;865630;-56
2021/11/30 05:47:16;;;;;;;4.16;3.28;;;;;;;;;;349495;149;860103;-55
2021/11/30 05:48:18;;;;;;;3.41;2.62;;;;;;;;;;351075;152;865276;-55
2021/11/30 05:49:20;;;;;;;3.36;2.27;;;;;;;;;;351203;153;865603;-56
2021/11/30 05:50:22;;;;;;;3.61;2.27;;;;;;;;;;346861;150;864741;-55
2021/11/30 05:51:23;;;;;;;2.81;2.36;;;;;;;;;;349201;150;859075;-57
2021/11/30 05:52:25;;;;;;;4.11;2.95;;;;;;;;;;350826;151;864747;-56
2021/11/30 05:53:27;;;;;;;2.79;2.09;;;;;;;;;;344165;151;857815;-55
2021/11/30 05:54:28;;;;;;;3.36;2.37;;;;;;;;;;350694;150;865858;-56
2021/11/30 05:55:30;;;;;;;3.64;2.37;;;;;;;;;;340214;155;865253;-55
2021/11/30 05:56:32;;;;;;;6.44;2.25;;;;;;;;;;348557;152;866285;-55
2021/11/30 05:57:38;;;;;;;2.63;2.34;;;;;;;;;;348427;150;857356;-56
2021/11/30 05:58:40;;;;;;;3.63;2.31;;;;;;;;;;346829;151;864648;-56
2021/11/30 05:59:43;;;;;;;3.45;2.22;;;;;;;;;;350026;153;857349;-57
2021/11/30 06:00:45;;;;;;;2.74;2.16;;;;;;;;;;349994;149;859285;-56
2021/11/30 06:01:47;;;;;;;4.41;2.33;;;;;;;;;;350125;152;857690;-55
2021/11/30 06:02:54;;;;;;;2.81;2.05;;;;;;;;;;351187;152;857309;-56
2021/11/30 06:03:59;;;;;;;3.98;2.11;;;;;;;;;;350734;149;857176;-56
2021/11/30 06:05:01;;;;;;;4.16;2.26;;;;;;;;;;349419;150;861307;-56
2021/11/30 06:06:21;;;;;;;2.53;1.69;;;;;;;;;;349341;150;859546;-55
2021/11/30 06:07:23;;;;;;;1.53;1.20;;;;;;;;;;352014;151;857691;-56
2021/11/30 06:08:25;;;;;;;1.96;1.83;;;;;;;;;;350783;149;864699;-57
2021/11/30 06:09:29;;;;;;;2.71;1.75;;;;;;;;;;350930;152;857632;-57
2021/11/30 06:10:30;;;;;;;2.25;1.63;;;;;;;;;;351236;153;865937;-56
2021/11/30 06:11:32;;;;;;;4.19;2.02;;;;;;;;;;351114;149;865097;-57
2021/11/30 06:12:33;;;;;;;1.70;1.39;;;;;;;;;;341042;155;864724;-57
2021/11/30 06:13:35;;;;;;;1.51;1.26;;;;;;;;;;347434;153;864913;-58
2021/11/30 06:14:37;;;;;;;2.63;1.49;;;;;;;;;;346931;149;864945;-58
2021/11/30 06:15:38;;;;;;;1.84;1.27;;;;;;;;;;349016;151;866351;-58
2021/11/30 06:16:40;;;;;;;1.52;1.39;;;;;;;;;;350606;150;865421;-58
2021/11/30 06:17:42;;;;;;;1.32;1.21;;;;;;;;;;350983;153;857360;-58